CYMX/YMX METAR and TAF weather

Enter ICAO airport designator
Station Type Date Time Source
CYMX METAR 2022/01/19 20:00 UTC NOAA

CYMX 192000Z 06005KT 010V090 7SM -SN OVC007 M15/M18 A2969 RMK ST8 SLP066


Station Type Date Time Source
CYMX Decoded METAR 2022/01/19 20:00 UTC NOAA

Montreal / Mirabel, Canada (CYMX) 45-41N 074-02W
Jan 19, 2022 - 03:00 PM EST / 2022.01.19 2000 UTC
Wind: from the ENE (060 degrees) at 6 MPH (5 KT) (direction variable):0
Visibility: 7 mile(s):0
Sky conditions: overcast
Weather: light snow
Temperature: 5 F (-15 C)
Windchill: -5 F (-21 C):2
Dew Point: 0 F (-18 C)
Relative Humidity: 77%
Pressure (altimeter): 29.69 in. Hg (1005 hPa)
ob: CYMX 192000Z 06005KT 010V090 7SM -SN OVC007 M15/M18 A2969 RMK ST8 SLP066
cycle: 20

Station Type Date Time Source
CYMX TAF 2022/01/19 18:45 UTC NOAA

TAF CYMX 191740Z 1918/2018 05010G20KT 6SM -SN OVC015
TEMPO 1918/1924 2SM -SN PROB30 1921/1924 3SM -FZDZ BR OVC005
FM200000 25012G22KT 6SM -SHSN OVC025 PROB30 2000/2003 VRB15G25KT 1 1/2SM -SHSN BLSN
FM200300 28010G20KT P6SM -SHSN OVC030
FM200800 30010KT P6SM SCT030
FM201400 30010KT P6SM SKC
RMK NXT FCST BY 200000Z

Example: see airport list